Time;durP1;ratioP1;P1;durP2;ratioP2;P2;SDS_P1;SDS_P2;PMS_P1;PMS_P2;Temp;Humidity;BMP_temperature;BMP_pressure;BME280_temperature;BME280_humidity;BME280_pressure;Samples;Min_cycle;Max_cycle;Signal;HPM_P1;HPM_P2
2021/05/16 00:00:24;;;;;;;;;;;;;;;8.09;96.91;99343.88;2063314;28;20408;-61
2021/05/16 00:01:25;;;;;;;;;;;;;;;8.13;96.75;99346.38;2063719;28;19913;-61
2021/05/16 00:02:25;;;;;;;;;;;;;;;8.13;96.73;99343.78;2063203;28;20362;-61
2021/05/16 00:03:26;;;;;;;;;;;;;;;8.14;96.55;99340.31;2063603;28;19924;-61
2021/05/16 00:04:26;;;;;;;;;;;;;;;8.14;96.54;99335.13;2056967;28;19982;-61
2021/05/16 00:05:28;;;;;;;;;;;;;;;8.26;95.80;99339.88;2058944;28;19910;-61
2021/05/16 00:06:28;;;;;;;;;;;;;;;8.23;95.88;99340.00;2062112;28;19980;-62
2021/05/16 00:07:28;;;;;;;;;;;;;;;8.26;95.70;99343.31;2061740;28;20353;-61
2021/05/16 00:08:28;;;;;;;;;;;;;;;8.24;96.04;99344.28;2062470;28;20377;-61
2021/05/16 00:09:29;;;;;;;;;;;;;;;8.32;95.36;99342.25;2062651;28;19926;-61
2021/05/16 00:10:29;;;;;;;;;;;;;;;8.29;95.40;99334.56;2057768;28;19918;-61
2021/05/16 00:11:30;;;;;;;;;;;;;;;8.25;95.48;99344.22;2056163;28;20418;-61
2021/05/16 00:12:30;;;;;;;;;;;;;;;8.28;95.37;99337.22;2062874;28;20477;-61
2021/05/16 00:13:30;;;;;;;;;;;;;;;8.23;95.59;99343.41;2064110;28;19917;-61
2021/05/16 00:14:31;;;;;;;;;;;;;;;8.22;95.80;99331.38;2064284;28;20334;-61
2021/05/16 00:15:31;;;;;;;;;;;;;;;8.21;95.94;99340.06;2064389;28;19909;-61
2021/05/16 00:16:32;;;;;;;;;;;;;;;8.17;96.11;99340.22;2065036;28;19917;-61
2021/05/16 00:17:32;;;;;;;;;;;;;;;8.18;96.24;99341.91;2064090;28;19945;-62
2021/05/16 00:18:32;;;;;;;;;;;;;;;8.21;96.04;99341.78;2063637;28;20044;-61
2021/05/16 00:19:32;;;;;;;;;;;;;;;8.18;96.11;99337.56;2064283;28;19937;-61
2021/05/16 00:20:33;;;;;;;;;;;;;;;8.14;96.11;99332.53;2064265;28;19913;-61
2021/05/16 00:21:33;;;;;;;;;;;;;;;8.05;96.45;99334.53;2063578;28;19968;-61
2021/05/16 00:22:33;;;;;;;;;;;;;;;8.15;96.56;99344.59;2063457;28;19963;-61
2021/05/16 00:23:34;;;;;;;;;;;;;;;8.06;96.72;99341.41;2063630;28;20465;-61
2021/05/16 00:24:34;;;;;;;;;;;;;;;8.05;96.85;99342.31;2063230;28;19913;-61
2021/05/16 00:25:34;;;;;;;;;;;;;;;8.14;96.57;99345.50;2063423;28;19944;-61
2021/05/16 00:26:35;;;;;;;;;;;;;;;8.09;96.82;99345.66;2063267;28;20538;-61
2021/05/16 00:27:36;;;;;;;;;;;;;;;8.12;96.71;99342.09;2063028;28;19947;-61
2021/05/16 00:28:36;;;;;;;;;;;;;;;8.11;97.02;99330.88;2063016;28;19917;-61
2021/05/16 00:29:36;;;;;;;;;;;;;;;8.10;96.97;99335.22;2062940;28;19991;-61
2021/05/16 00:30:36;;;;;;;;;;;;;;;8.09;97.07;99333.50;2063311;28;19971;-61
2021/05/16 00:31:37;;;;;;;;;;;;;;;8.16;96.88;99331.56;2062233;28;20421;-61
2021/05/16 00:32:37;;;;;;;;;;;;;;;8.16;96.95;99335.91;2063025;28;20004;-61
2021/05/16 00:33:37;;;;;;;;;;;;;;;8.20;96.92;99332.28;2062679;28;19944;-61
2021/05/16 00:34:37;;;;;;;;;;;;;;;8.23;96.47;99337.38;2062756;28;19917;-61
2021/05/16 00:35:38;;;;;;;;;;;;;;;8.21;96.64;99336.59;2063017;28;20405;-61
2021/05/16 00:36:38;;;;;;;;;;;;;;;8.21;96.58;99336.59;2063106;28;20004;-61
2021/05/16 00:37:38;;;;;;;;;;;;;;;8.19;96.87;99339.25;2063027;28;19914;-61
2021/05/16 00:38:38;;;;;;;;;;;;;;;8.19;96.97;99333.19;2063190;28;19914;-61
2021/05/16 00:39:38;;;;;;;;;;;;;;;8.20;96.85;99337.50;2062777;28;19917;-61
2021/05/16 00:40:39;;;;;;;;;;;;;;;8.22;97.02;99338.28;2062642;28;20408;-61
2021/05/16 00:41:39;;;;;;;;;;;;;;;8.24;97.13;99346.88;2063001;28;19928;-61
2021/05/16 00:42:39;;;;;;;;;;;;;;;8.30;96.62;99338.88;2064774;28;19909;-61
2021/05/16 00:43:39;;;;;;;;;;;;;;;8.27;96.68;99341.59;2064171;28;19917;-61
2021/05/16 00:44:55;;;;;;;;;;;;;;;8.23;96.90;99342.59;2063799;28;19937;-61
2021/05/16 00:45:55;;;;;;;;;;;;;;;8.24;97.08;99345.13;2063992;28;19910;-61
2021/05/16 00:46:55;;;;;;;;;;;;;;;8.19;97.29;99346.16;2064512;28;19916;-61
2021/05/16 00:47:57;;;;;;;;;;;;;;;8.16;97.51;99343.69;2065129;28;19910;-61
2021/05/16 00:48:57;;;;;;;;;;;;;;;8.15;97.54;99347.19;2065518;28;19916;-61
2021/05/16 00:49:57;;;;;;;;;;;;;;;8.12;97.78;99342.09;2065145;28;20282;-61
2021/05/16 00:50:57;;;;;;;;;;;;;;;8.04;98.06;99337.16;2065034;28;20021;-61
2021/05/16 00:51:58;;;;;;;;;;;;;;;7.99;98.33;99337.31;2064538;28;19917;-61
2021/05/16 00:52:58;;;;;;;;;;;;;;;8.02;98.27;99328.59;2065041;28;19934;-61
2021/05/16 00:53:58;;;;;;;;;;;;;;;7.94;98.68;99331.44;2064722;28;20290;-61
2021/05/16 00:54:58;;;;;;;;;;;;;;;7.95;98.73;99328.78;2065246;28;19914;-61
2021/05/16 00:56:00;;;;;;;;;;;;;;;8.02;98.60;99324.25;2064609;28;20536;-61
2021/05/16 00:57:00;;;;;;;;;;;;;;;8.06;98.61;99332.78;2065227;28;19956;-61
2021/05/16 00:58:01;;;;;;;;;;;;;;;8.04;98.72;99319.84;2065065;28;19937;-61
2021/05/16 00:59:01;;;;;;;;;;;;;;;8.04;98.70;99322.44;2065455;28;19922;-61
2021/05/16 01:00:03;;;;;;;;;;;;;;;8.16;98.68;99320.34;2064937;28;20013;-61
2021/05/16 01:01:08;;;;;;;;;;;;;;;8.16;98.47;99318.59;2065201;28;19910;-61
2021/05/16 01:02:08;;;;;;;;;;;;;;;8.28;98.07;99316.47;2064891;28;20009;-61
2021/05/16 01:03:09;;;;;;;;;;;;;;;8.19;98.15;99302.91;2065092;28;20371;-61
2021/05/16 01:04:10;;;;;;;;;;;;;;;8.22;97.98;99312.34;2064979;28;19971;-61
2021/05/16 01:05:11;;;;;;;;;;;;;;;8.20;98.13;99308.94;2065018;28;20394;-61
2021/05/16 01:06:12;;;;;;;;;;;;;;;8.24;97.96;99305.34;2064075;28;20101;-61
2021/05/16 01:07:15;;;;;;;;;;;;;;;8.26;97.85;99309.56;2064673;28;19955;-61
2021/05/16 01:08:19;;;;;;;;;;;;;;;8.31;97.85;99306.81;2059976;28;19965;-61
2021/05/16 01:09:25;;;;;;;;;;;;;;;8.40;97.02;99309.09;2056774;28;20017;-61
2021/05/16 01:10:26;;;;;;;;;;;;;;;8.32;96.98;99315.47;2055678;28;20410;-61
2021/05/16 01:11:28;;;;;;;;;;;;;;;8.33;97.17;99317.13;2048493;29;19910;-61
2021/05/16 01:12:33;;;;;;;;;;;;;;;8.27;97.42;99310.44;2048384;28;20413;-61
2021/05/16 01:13:35;;;;;;;;;;;;;;;8.32;97.01;99310.28;2056955;28;20077;-61
2021/05/16 01:14:39;;;;;;;;;;;;;;;8.31;97.09;99305.97;2057734;28;19988;-61
2021/05/16 01:15:41;;;;;;;;;;;;;;;8.36;97.12;99317.91;2065139;28;19910;-61
2021/05/16 01:16:42;;;;;;;;;;;;;;;8.36;96.94;99314.44;2065052;28;19945;-62
2021/05/16 01:17:42;;;;;;;;;;;;;;;8.44;96.58;99316.78;2056446;28;19972;-61
2021/05/16 01:18:42;;;;;;;;;;;;;;;8.37;96.99;99305.75;2056057;28;19917;-61
2021/05/16 01:19:42;;;;;;;;;;;;;;;8.31;97.01;99311.19;2064937;28;19910;-61
2021/05/16 01:20:44;;;;;;;;;;;;;;;8.31;97.23;99304.22;2065092;28;19914;-61
2021/05/16 01:21:44;;;;;;;;;;;;;;;8.29;97.25;99306.00;2063737;28;19964;-61
2021/05/16 01:22:51;;;;;;;;;;;;;;;8.30;97.37;99310.31;2064090;28;20402;-61
2021/05/16 01:23:51;;;;;;;;;;;;;;;8.30;97.35;99315.50;2053048;28;20315;-61
2021/05/16 01:24:51;;;;;;;;;;;;;;;8.32;97.38;99316.31;2048526;28;20001;-61
2021/05/16 01:25:51;;;;;;;;;;;;;;;8.31;97.48;99314.59;2063595;28;19914;-61
2021/05/16 01:26:52;;;;;;;;;;;;;;;8.41;96.87;99309.94;2064978;28;19971;-61
2021/05/16 01:27:52;;;;;;;;;;;;;;;8.46;96.36;99314.97;2064504;28;19913;-61
2021/05/16 01:28:52;;;;;;;;;;;;;;;8.44;96.42;99316.78;2065026;28;19964;-61
2021/05/16 01:29:53;;;;;;;;;;;;;;;8.38;96.66;99316.06;2064804;28;19914;-61
2021/05/16 01:30:53;;;;;;;;;;;;;;;8.41;96.44;99318.56;2064859;28;19937;-61
2021/05/16 01:31:54;;;;;;;;;;;;;;;8.52;96.05;99319.97;2064782;28;19914;-60
2021/05/16 01:32:54;;;;;;;;;;;;;;;8.46;96.34;99314.97;2065008;28;19911;-61
2021/05/16 01:33:54;;;;;;;;;;;;;;;8.38;96.67;99318.66;2064496;28;19972;-61
2021/05/16 01:34:54;;;;;;;;;;;;;;;8.40;96.76;99318.63;2065110;28;20387;-61
2021/05/16 01:35:54;;;;;;;;;;;;;;;8.35;96.71;99318.81;2064634;28;19910;-61
2021/05/16 01:36:55;;;;;;;;;;;;;;;8.36;97.12;99320.50;2064880;28;20008;-61
2021/05/16 01:37:55;;;;;;;;;;;;;;;8.33;96.76;99310.22;2065174;28;20409;-61
2021/05/16 01:38:55;;;;;;;;;;;;;;;8.31;97.29;99316.38;2064283;28;20359;-61
2021/05/16 01:39:55;;;;;;;;;;;;;;;8.30;97.43;99310.31;2064552;28;20012;-61
2021/05/16 01:40:56;;;;;;;;;;;;;;;8.23;97.39;99312.25;2065090;28;20001;-61
2021/05/16 01:41:56;;;;;;;;;;;;;;;8.28;97.44;99313.88;2063791;28;20401;-61
2021/05/16 01:42:57;;;;;;;;;;;;;;;8.28;97.42;99312.09;2064746;28;19968;-61
2021/05/16 01:43:58;;;;;;;;;;;;;;;8.29;97.54;99313.81;2064479;28;19922;-61
2021/05/16 01:45:05;;;;;;;;;;;;;;;8.34;97.42;99314.50;2064987;28;19918;-61
2021/05/16 01:46:05;;;;;;;;;;;;;;;8.31;97.70;99316.38;2064859;28;20340;-61
2021/05/16 01:47:05;;;;;;;;;;;;;;;8.32;97.56;99312.88;2064965;28;19917;-61
2021/05/16 01:48:06;;;;;;;;;;;;;;;8.30;97.71;99314.66;2064590;28;19914;-61
2021/05/16 01:49:06;;;;;;;;;;;;;;;8.30;98.00;99315.50;2067317;28;19913;-61
2021/05/16 01:50:08;;;;;;;;;;;;;;;8.32;97.77;99320.66;2064598;28;19978;-61
2021/05/16 01:51:09;;;;;;;;;;;;;;;8.28;97.99;99317.28;2064728;28;19945;-61
2021/05/16 01:52:10;;;;;;;;;;;;;;;8.25;97.89;99314.84;2064269;28;19969;-61
2021/05/16 01:53:11;;;;;;;;;;;;;;;8.25;98.15;99315.66;2064677;28;19920;-61
2021/05/16 01:54:11;;;;;;;;;;;;;;;8.28;98.14;99316.47;2064221;28;19924;-60
2021/05/16 01:55:12;;;;;;;;;;;;;;;8.24;98.33;99320.91;2064197;28;19922;-59
2021/05/16 01:56:19;;;;;;;;;;;;;;;8.24;98.54;99320.91;2064419;28;19917;-59
2021/05/16 01:57:20;;;;;;;;;;;;;;;8.30;98.39;99320.69;2069655;28;19913;-59
2021/05/16 01:58:21;;;;;;;;;;;;;;;8.30;98.16;99320.69;2064040;28;19921;-59
2021/05/16 01:59:21;;;;;;;;;;;;;;;8.31;97.99;99318.97;2064510;28;19921;-59
2021/05/16 02:00:25;;;;;;;;;;;;;;;8.31;98.25;99322.38;2064697;28;19937;-59
2021/05/16 02:01:25;;;;;;;;;;;;;;;8.30;98.20;99320.69;2064724;28;19978;-59
2021/05/16 02:02:25;;;;;;;;;;;;;;;8.33;98.04;99328.38;2064229;28;20445;-59
2021/05/16 02:03:26;;;;;;;;;;;;;;;8.36;97.92;99320.50;2064305;28;19909;-59
2021/05/16 02:04:30;;;;;;;;;;;;;;;8.35;98.00;99318.81;2064840;28;20390;-60
2021/05/16 02:05:31;;;;;;;;;;;;;;;8.35;97.95;99313.59;2065082;28;19937;-59
2021/05/16 02:06:32;;;;;;;;;;;;;;;8.43;97.90;99320.28;2065182;28;19917;-59
2021/05/16 02:07:33;;;;;;;;;;;;;;;8.41;97.72;99312.53;2064569;28;19910;-59
2021/05/16 02:08:34;;;;;;;;;;;;;;;8.38;98.01;99316.06;2065031;28;19909;-59
2021/05/16 02:09:36;;;;;;;;;;;;;;;8.38;98.06;99315.25;2064736;28;19956;-59
2021/05/16 02:10:36;;;;;;;;;;;;;;;8.39;97.91;99312.56;2064797;28;19923;-59
2021/05/16 02:11:37;;;;;;;;;;;;;;;8.40;97.88;99314.28;2064306;28;20314;-59
2021/05/16 02:12:37;;;;;;;;;;;;;;;8.48;97.67;99314.03;2064088;28;19917;-59
2021/05/16 02:13:39;;;;;;;;;;;;;;;8.48;97.82;99305.38;2064072;28;19914;-59
2021/05/16 02:14:39;;;;;;;;;;;;;;;8.48;97.90;99313.19;2064565;28;19960;-59
2021/05/16 02:15:39;;;;;;;;;;;;;;;8.53;97.97;99308.69;2064453;28;19957;-59
2021/05/16 02:16:40;;;;;;;;;;;;;;;8.50;97.80;99313.97;2064452;28;20008;-59
2021/05/16 02:17:41;;;;;;;;;;;;;;;8.48;97.61;99302.78;2064299;28;20401;-59
2021/05/16 02:18:42;;;;;;;;;;;;;;;8.53;97.54;99306.91;2064656;28;19918;-59
2021/05/16 02:19:42;;;;;;;;;;;;;;;8.50;97.59;99301.00;2063498;28;20314;-59
2021/05/16 02:20:43;;;;;;;;;;;;;;;8.48;97.80;99305.38;2064413;28;19916;-59
2021/05/16 02:21:43;;;;;;;;;;;;;;;8.58;97.50;99298.97;2063766;28;19916;-59
2021/05/16 02:22:43;;;;;;;;;;;;;;;8.49;97.44;99307.09;2063721;28;19921;-59
2021/05/16 02:23:43;;;;;;;;;;;;;;;8.47;97.92;99308.88;2065299;28;19910;-61
2021/05/16 02:24:44;;;;;;;;;;;;;;;8.43;98.16;99309.88;2064070;28;19920;-61
2021/05/16 02:25:44;;;;;;;;;;;;;;;8.40;98.02;99300.47;2064059;28;19917;-61
2021/05/16 02:26:45;;;;;;;;;;;;;;;8.44;97.93;99308.97;2063435;28;19961;-61
2021/05/16 02:27:48;;;;;;;;;;;;;;;8.41;98.12;99313.38;2063832;28;19960;-61
2021/05/16 02:28:49;;;;;;;;;;;;;;;8.50;97.71;99311.38;2064031;28;19909;-61
2021/05/16 02:29:49;;;;;;;;;;;;;;;8.45;97.89;99303.72;2063697;28;19918;-61
2021/05/16 02:30:50;;;;;;;;;;;;;;;8.53;97.74;99311.28;2064580;28;19976;-61
2021/05/16 02:31:51;;;;;;;;;;;;;;;8.52;97.77;99314.78;2063807;28;19996;-61
2021/05/16 02:32:51;;;;;;;;;;;;;;;8.52;97.57;99307.81;2064135;28;19914;-61
2021/05/16 02:33:51;;;;;;;;;;;;;;;8.50;97.74;99311.38;2064089;28;19913;-61
2021/05/16 02:34:51;;;;;;;;;;;;;;;8.46;98.01;99314.97;2064367;28;20029;-61
2021/05/16 02:35:52;;;;;;;;;;;;;;;8.47;98.01;99317.53;2064028;28;20485;-61
2021/05/16 02:36:52;;;;;;;;;;;;;;;8.47;97.96;99312.34;2064466;28;19941;-61
2021/05/16 02:37:52;;;;;;;;;;;;;;;8.47;98.29;99306.28;2064203;28;19993;-61
2021/05/16 02:38:53;;;;;;;;;;;;;;;8.53;98.10;99316.47;2064436;28;19913;-61
2021/05/16 02:39:53;;;;;;;;;;;;;;;8.51;98.17;99308.75;2063629;28;19914;-61
2021/05/16 02:40:53;;;;;;;;;;;;;;;8.53;98.16;99308.69;2063828;28;19917;-61
2021/05/16 02:41:53;;;;;;;;;;;;;;;8.54;97.90;99306.03;2064477;28;19910;-61
2021/05/16 02:42:53;;;;;;;;;;;;;;;8.61;98.06;99309.25;2064387;28;19910;-61
2021/05/16 02:43:54;;;;;;;;;;;;;;;8.67;97.64;99301.22;2055749;28;19910;-61
2021/05/16 02:44:54;;;;;;;;;;;;;;;8.66;97.51;99307.34;2055791;28;19921;-61
2021/05/16 02:45:54;;;;;;;;;;;;;;;8.69;97.60;99302.00;2064639;28;19914;-61
2021/05/16 02:46:55;;;;;;;;;;;;;;;8.70;97.88;99308.06;2055644;28;19993;-61
2021/05/16 02:47:55;;;;;;;;;;;;;;;8.72;97.78;99312.31;2056008;28;20005;-61
2021/05/16 02:48:55;;;;;;;;;;;;;;;8.69;97.78;99307.22;2064393;28;20414;-61
2021/05/16 02:49:55;;;;;;;;;;;;;;;8.73;97.81;99302.75;2064326;28;19960;-61
2021/05/16 02:50:56;;;;;;;;;;;;;;;8.71;98.07;99301.97;2064425;28;19916;-61
2021/05/16 02:51:56;;;;;;;;;;;;;;;8.73;98.45;99302.75;2064343;28;19916;-61
2021/05/16 02:52:57;;;;;;;;;;;;;;;8.72;98.41;99311.44;2064335;28;19916;-61
2021/05/16 02:53:57;;;;;;;;;;;;;;;8.74;98.42;99309.63;2064394;28;19961;-61
2021/05/16 02:54:57;;;;;;;;;;;;;;;8.72;98.80;99304.50;2064064;28;19922;-61
2021/05/16 02:55:57;;;;;;;;;;;;;;;8.75;98.63;99302.72;2064459;28;19916;-61
2021/05/16 02:56:57;;;;;;;;;;;;;;;8.68;98.73;99302.91;2064398;28;19921;-61
2021/05/16 02:57:58;;;;;;;;;;;;;;;8.70;98.97;99298.53;2064336;28;19965;-61
2021/05/16 02:58:58;;;;;;;;;;;;;;;8.65;99.16;99297.84;2064293;28;19914;-60
2021/05/16 02:59:59;;;;;;;;;;;;;;;8.68;99.22;99300.31;2064095;28;19916;-61
2021/05/16 03:00:59;;;;;;;;;;;;;;;8.70;99.62;99302.88;2064330;28;19909;-61
2021/05/16 03:01:59;;;;;;;;;;;;;;;8.67;99.67;99298.63;2055652;28;19918;-61
2021/05/16 03:02:59;;;;;;;;;;;;;;;8.69;99.78;99304.63;2055636;28;20001;-61
2021/05/16 03:04:00;;;;;;;;;;;;;;;8.68;99.82;99305.50;2064329;28;19909;-61
2021/05/16 03:05:00;;;;;;;;;;;;;;;8.67;100.00;99297.78;2064356;28;20082;-62
2021/05/16 03:06:00;;;;;;;;;;;;;;;8.64;100.00;99298.75;2064432;28;20370;-61
2021/05/16 03:07:01;;;;;;;;;;;;;;;8.65;100.00;99297.00;2063924;28;19925;-61
2021/05/16 03:08:02;;;;;;;;;;;;;;;8.64;100.00;99298.75;2063881;28;20354;-61
2021/05/16 03:09:02;;;;;;;;;;;;;;;8.66;100.00;99294.34;2064567;28;19910;-61
2021/05/16 03:10:03;;;;;;;;;;;;;;;8.64;100.00;99303.94;2064038;28;19945;-61
2021/05/16 03:11:03;;;;;;;;;;;;;;;8.69;100.00;99299.41;2064462;28;19914;-61
2021/05/16 03:12:04;;;;;;;;;;;;;;;8.71;100.00;99299.38;2064062;28;20033;-61
2021/05/16 03:13:04;;;;;;;;;;;;;;;8.70;100.00;99303.72;2064452;28;20362;-61
2021/05/16 03:14:05;;;;;;;;;;;;;;;8.74;99.81;99298.41;2064335;28;19945;-61
2021/05/16 03:15:05;;;;;;;;;;;;;;;8.74;99.94;99298.41;2064504;28;20414;-61
2021/05/16 03:16:05;;;;;;;;;;;;;;;8.71;100.00;99299.38;2064302;28;20007;-61
2021/05/16 03:17:06;;;;;;;;;;;;;;;8.72;99.80;99290.66;2064073;28;19918;-61
2021/05/16 03:18:06;;;;;;;;;;;;;;;8.72;99.30;99291.53;2064465;28;19910;-61
2021/05/16 03:19:06;;;;;;;;;;;;;;;8.71;99.57;99294.19;2064602;28;19910;-61
2021/05/16 03:20:07;;;;;;;;;;;;;;;8.71;99.72;99300.22;2064307;28;19916;-61
2021/05/16 03:21:07;;;;;;;;;;;;;;;8.76;99.46;99291.41;2064574;28;19910;-61
2021/05/16 03:22:09;;;;;;;;;;;;;;;8.71;99.55;99292.41;2063440;28;19909;-61
2021/05/16 03:23:09;;;;;;;;;;;;;;;8.66;99.67;99285.69;2064144;28;19972;-61
2021/05/16 03:24:10;;;;;;;;;;;;;;;8.64;99.71;99293.56;2064507;28;19909;-61
2021/05/16 03:25:11;;;;;;;;;;;;;;;8.63;99.92;99286.66;2064430;28;19997;-61
2021/05/16 03:26:11;;;;;;;;;;;;;;;8.66;100.00;99285.69;2064524;28;19909;-61
2021/05/16 03:27:11;;;;;;;;;;;;;;;8.65;100.00;99300.44;2064606;28;20013;-61
2021/05/16 03:28:11;;;;;;;;;;;;;;;8.64;100.00;99290.09;2064283;28;20030;-61
2021/05/16 03:29:12;;;;;;;;;;;;;;;8.64;100.00;99293.56;2063842;28;20572;-61
2021/05/16 03:30:12;;;;;;;;;;;;;;;8.67;100.00;99292.59;2064152;28;19920;-62
2021/05/16 03:31:12;;;;;;;;;;;;;;;8.63;100.00;99291.88;2064555;28;19909;-61
2021/05/16 03:32:13;;;;;;;;;;;;;;;8.66;100.00;99296.97;2063719;28;19921;-61
2021/05/16 03:33:13;;;;;;;;;;;;;;;8.64;100.00;99298.75;2064259;28;19914;-61
2021/05/16 03:34:13;;;;;;;;;;;;;;;8.72;100.00;99299.31;2055508;28;20394;-61
2021/05/16 03:35:13;;;;;;;;;;;;;;;8.68;100.00;99292.53;2055747;28;19910;-61
2021/05/16 03:36:13;;;;;;;;;;;;;;;8.72;100.00;99288.06;2064161;28;19925;-61
2021/05/16 03:37:14;;;;;;;;;;;;;;;8.67;100.00;99293.44;2064292;28;19961;-61
2021/05/16 03:38:14;;;;;;;;;;;;;;;8.64;100.00;99293.56;2063848;28;19914;-61
2021/05/16 03:39:14;;;;;;;;;;;;;;;8.74;100.00;99290.63;2064406;28;19910;-61
2021/05/16 03:40:15;;;;;;;;;;;;;;;8.74;99.91;99303.59;2064132;28;20285;-61
2021/05/16 03:41:15;;;;;;;;;;;;;;;8.73;100.00;99302.75;2064088;28;19910;-61
2021/05/16 03:42:15;;;;;;;;;;;;;;;8.70;100.00;99301.13;2065566;28;19975;-61
2021/05/16 03:43:18;;;;;;;;;;;;;;;8.68;100.00;99295.13;2064964;28;19935;-61
2021/05/16 03:44:18;;;;;;;;;;;;;;;8.68;100.00;99297.72;2065774;28;19917;-61
2021/05/16 03:45:18;;;;;;;;;;;;;;;8.69;100.00;99298.59;2065883;28;19916;-61
2021/05/16 03:46:19;;;;;;;;;;;;;;;8.67;100.00;99298.63;2065944;28;19909;-61
2021/05/16 03:47:19;;;;;;;;;;;;;;;8.67;100.00;99301.22;2065797;28;20005;-61
2021/05/16 03:48:20;;;;;;;;;;;;;;;8.67;100.00;99296.03;2065841;28;20366;-61
2021/05/16 03:49:20;;;;;;;;;;;;;;;8.66;100.00;99296.97;2065670;28;19941;-61
2021/05/16 03:50:20;;;;;;;;;;;;;;;8.66;100.00;99294.34;2065750;28;19914;-61
2021/05/16 03:51:20;;;;;;;;;;;;;;;8.65;100.00;99295.25;2065684;28;20538;-61
2021/05/16 03:52:21;;;;;;;;;;;;;;;8.67;100.00;99303.81;2065369;28;19918;-61
2021/05/16 03:53:21;;;;;;;;;;;;;;;8.71;100.00;99300.22;2056362;28;19964;-61
2021/05/16 03:54:21;;;;;;;;;;;;;;;8.67;100.00;99303.81;2056965;28;19910;-61
2021/05/16 03:55:21;;;;;;;;;;;;;;;8.69;100.00;99302.00;2065456;28;19914;-61
2021/05/16 03:56:22;;;;;;;;;;;;;;;8.69;100.00;99298.59;2056879;28;19980;-61
2021/05/16 03:57:22;;;;;;;;;;;;;;;8.67;100.00;99297.78;2056944;28;19914;-61
2021/05/16 03:58:23;;;;;;;;;;;;;;;8.78;100.00;99292.19;2066133;28;19914;-61
2021/05/16 03:59:23;;;;;;;;;;;;;;;8.76;100.00;99297.44;2057075;28;20279;-61
2021/05/16 04:00:23;;;;;;;;;;;;;;;8.74;100.00;99293.22;2056539;28;19910;-61
2021/05/16 04:01:24;;;;;;;;;;;;;;;8.72;100.00;99294.13;2056566;28;19945;-62
2021/05/16 04:02:24;;;;;;;;;;;;;;;8.76;100.00;99294.84;2056252;28;20286;-61
2021/05/16 04:03:24;;;;;;;;;;;;;;;8.75;100.00;99300.94;2056204;28;19910;-62
2021/05/16 04:04:24;;;;;;;;;;;;;;;8.75;100.00;99298.34;2065303;28;19917;-61
2021/05/16 04:05:25;;;;;;;;;;;;;;;8.74;100.00;99298.41;2064180;28;20290;-61
2021/05/16 04:06:25;;;;;;;;;;;;;;;8.75;100.00;99292.31;2065243;28;20252;-61
2021/05/16 04:07:25;;;;;;;;;;;;;;;8.75;100.00;99293.16;2065466;28;19956;-61
2021/05/16 04:08:25;;;;;;;;;;;;;;;8.77;100.00;99299.16;2065553;28;20325;-61
2021/05/16 04:09:25;;;;;;;;;;;;;;;8.75;100.00;99300.13;2064808;28;19914;-61
2021/05/16 04:10:26;;;;;;;;;;;;;;;8.83;99.86;99303.25;2064338;28;19910;-60
2021/05/16 04:11:26;;;;;;;;;;;;;;;8.80;100.00;99298.16;2057040;28;19965;-61
2021/05/16 04:12:27;;;;;;;;;;;;;;;8.82;100.00;99302.41;2056381;28;19914;-61
2021/05/16 04:13:27;;;;;;;;;;;;;;;8.83;100.00;99288.50;2065691;28;19913;-61
2021/05/16 04:14:28;;;;;;;;;;;;;;;8.85;99.96;99297.09;2065337;28;19968;-61
2021/05/16 04:15:28;;;;;;;;;;;;;;;8.82;100.00;99289.41;2065755;28;19913;-61
2021/05/16 04:16:29;;;;;;;;;;;;;;;8.85;100.00;99294.50;2065363;28;20325;-61
2021/05/16 04:17:29;;;;;;;;;;;;;;;8.84;100.00;99294.56;2065746;28;20314;-62
2021/05/16 04:18:30;;;;;;;;;;;;;;;8.84;100.00;99295.41;2065624;28;19917;-62
2021/05/16 04:19:30;;;;;;;;;;;;;;;8.85;100.00;99291.06;2065558;28;20370;-61
2021/05/16 04:20:31;;;;;;;;;;;;;;;8.87;100.00;99294.44;2065355;28;19936;-61
2021/05/16 04:21:31;;;;;;;;;;;;;;;8.87;100.00;99289.22;2065413;28;19928;-61
2021/05/16 04:22:31;;;;;;;;;;;;;;;8.92;100.00;99297.72;2064421;28;19910;-61
2021/05/16 04:23:34;;;;;;;;;;;;;;;8.89;100.00;99295.22;2065309;28;20349;-61
2021/05/16 04:24:34;;;;;;;;;;;;;;;8.91;100.00;99301.22;2065275;28;19913;-61
2021/05/16 04:25:34;;;;;;;;;;;;;;;8.87;100.00;99295.28;2065673;28;20012;-61
2021/05/16 04:26:35;;;;;;;;;;;;;;;8.92;100.00;99292.53;2065494;28;20438;-61
2021/05/16 04:27:35;;;;;;;;;;;;;;;8.94;99.89;99295.06;2065470;28;19914;-61
2021/05/16 04:28:35;;;;;;;;;;;;;;;8.99;99.41;99299.16;2065512;28;19925;-61
2021/05/16 04:29:35;;;;;;;;;;;;;;;8.96;99.13;99288.91;2065424;28;20310;-61
2021/05/16 04:30:35;;;;;;;;;;;;;;;9.02;99.27;99296.47;2064965;28;20004;-61
2021/05/16 04:31:36;;;;;;;;;;;;;;;9.00;99.52;99300.88;2065214;28;19910;-61
2021/05/16 04:32:36;;;;;;;;;;;;;;;9.03;99.58;99300.75;2064120;28;19917;-61
2021/05/16 04:33:36;;;;;;;;;;;;;;;9.06;99.60;99298.97;2064226;28;19922;-61
2021/05/16 04:34:36;;;;;;;;;;;;;;;9.18;98.54;99299.31;2064818;28;19910;-61
2021/05/16 04:35:36;;;;;;;;;;;;;;;9.18;98.28;99293.25;2063574;28;19920;-61
2021/05/16 04:36:37;;;;;;;;;;;;;;;9.20;98.59;99294.06;2065410;28;19909;-61
2021/05/16 04:37:37;;;;;;;;;;;;;;;9.19;98.83;99290.63;2056595;28;20351;-61
2021/05/16 04:38:37;;;;;;;;;;;;;;;9.25;98.42;99299.94;2055115;28;19922;-61
2021/05/16 04:39:38;;;;;;;;;;;;;;;9.29;98.51;99301.50;2064814;28;20401;-61
2021/05/16 04:40:38;;;;;;;;;;;;;;;9.27;98.06;99297.25;2063934;28;19972;-62
2021/05/16 04:41:38;;;;;;;;;;;;;;;9.28;98.16;99298.97;2064115;28;19913;-61
2021/05/16 04:42:38;;;;;;;;;;;;;;;9.29;98.02;99298.88;2064079;28;20073;-61
2021/05/16 04:43:38;;;;;;;;;;;;;;;9.29;98.00;99301.50;2063925;28;19940;-61
2021/05/16 04:44:39;;;;;;;;;;;;;;;9.33;98.45;99307.41;2064964;28;20008;-61
2021/05/16 04:45:39;;;;;;;;;;;;;;;9.32;98.29;99303.13;2065404;28;19910;-61
2021/05/16 04:46:39;;;;;;;;;;;;;;;9.34;98.25;99303.91;2065487;28;19952;-61
2021/05/16 04:47:39;;;;;;;;;;;;;;;9.35;98.12;99296.03;2056404;28;19957;-61
2021/05/16 04:48:40;;;;;;;;;;;;;;;9.36;98.04;99296.91;2056477;28;20125;-61
2021/05/16 04:49:40;;;;;;;;;;;;;;;9.41;98.32;99301.91;2065034;28;19918;-61
2021/05/16 04:50:40;;;;;;;;;;;;;;;9.45;98.00;99296.53;2065175;28;20338;-61
2021/05/16 04:51:40;;;;;;;;;;;;;;;9.50;97.97;99298.94;2065014;28;19920;-61
2021/05/16 04:52:41;;;;;;;;;;;;;;;9.51;97.70;99300.63;2064456;28;19921;-61
2021/05/16 04:53:41;;;;;;;;;;;;;;;9.63;97.22;99297.56;2064615;28;20845;-61
2021/05/16 04:54:42;;;;;;;;;;;;;;;9.64;97.03;99298.38;2065076;28;20045;-61
2021/05/16 04:55:42;;;;;;;;;;;;;;;9.68;96.98;99302.56;2065336;28;19960;-61
2021/05/16 04:56:42;;;;;;;;;;;;;;;9.68;96.75;99297.38;2065405;28;20289;-61
2021/05/16 04:57:44;;;;;;;;;;;;;;;9.77;96.33;99288.31;2065132;28;20020;-61
2021/05/16 04:58:45;;;;;;;;;;;;;;;9.80;96.22;99290.78;2065339;28;20385;-61
2021/05/16 04:59:49;;;;;;;;;;;;;;;9.84;96.21;99287.16;2065091;28;20000;-61
2021/05/16 05:00:49;;;;;;;;;;;;;;;9.69;96.26;99291.25;2056138;28;19945;-61
2021/05/16 05:01:49;;;;;;;;;;;;;;;9.73;96.44;99290.19;2056174;28;20056;-61
2021/05/16 05:02:49;;;;;;;;;;;;;;;9.71;96.66;99293.78;2065097;28;20518;-61
2021/05/16 05:03:50;;;;;;;;;;;;;;;9.68;96.90;99296.50;2056322;28;19910;-61
2021/05/16 05:04:51;;;;;;;;;;;;;;;9.76;96.99;99291.81;2056708;28;20363;-61
2021/05/16 05:05:55;;;;;;;;;;;;;;;9.66;97.06;99305.22;2065191;28;19917;-61
2021/05/16 05:06:55;;;;;;;;;;;;;;;9.69;96.94;99303.41;2064970;28;19971;-61
2021/05/16 05:07:55;;;;;;;;;;;;;;;9.71;96.93;99297.22;2065006;28;19913;-61
2021/05/16 05:08:59;;;;;;;;;;;;;;;9.76;96.83;99307.44;2064970;28;19921;-61
2021/05/16 05:09:59;;;;;;;;;;;;;;;9.74;96.77;99306.66;2065154;28;20005;-61
2021/05/16 05:10:59;;;;;;;;;;;;;;;9.80;96.87;99306.41;2065018;28;19913;-61
2021/05/16 05:12:00;;;;;;;;;;;;;;;9.85;96.61;99299.25;2065002;28;19909;-61
2021/05/16 05:13:00;;;;;;;;;;;;;;;9.91;95.86;99292.94;2065014;28;19959;-61
2021/05/16 05:14:00;;;;;;;;;;;;;;;9.95;95.98;99300.53;2065231;28;19913;-61
2021/05/16 05:15:00;;;;;;;;;;;;;;;9.95;95.98;99295.34;2065243;28;19914;-61
2021/05/16 05:16:01;;;;;;;;;;;;;;;10.01;95.95;99298.63;2065332;28;19913;-61
2021/05/16 05:17:01;;;;;;;;;;;;;;;10.00;95.75;99296.91;2064966;28;20322;-61
2021/05/16 05:18:01;;;;;;;;;;;;;;;10.03;95.66;99286.38;2064883;28;19921;-61
2021/05/16 05:19:01;;;;;;;;;;;;;;;10.03;95.00;99294.19;2065032;28;19923;-61